sensor_id;sensor_type;location;lat;lon;timestamp;pressure;altitude;pressure_sealevel;temperature;humidity
10606;BME280;5350;42.698;23.148;2023-11-22T00:00:13;92941.47;;;7.86;100.00
10606;BME280;5350;42.698;23.148;2023-11-22T00:02:40;92925.59;;;7.64;100.00
10606;BME280;5350;42.698;23.148;2023-11-22T00:05:07;92940.44;;;7.68;100.00
10606;BME280;5350;42.698;23.148;2023-11-22T00:07:36;92932.84;;;7.53;100.00
10606;BME280;5350;42.698;23.148;2023-11-22T00:10:06;92948.63;;;7.48;100.00
10606;BME280;5350;42.698;23.148;2023-11-22T00:12:34;92941.06;;;7.47;100.00
10606;BME280;5350;42.698;23.148;2023-11-22T00:15:03;92946.84;;;7.62;100.00
10606;BME280;5350;42.698;23.148;2023-11-22T00:17:31;92931.63;;;7.64;100.00
10606;BME280;5350;42.698;23.148;2023-11-22T00:19:58;92920.38;;;7.64;100.00
10606;BME280;5350;42.698;23.148;2023-11-22T00:22:26;92942.13;;;7.78;100.00
10606;BME280;5350;42.698;23.148;2023-11-22T00:24:53;92939.44;;;7.51;100.00
10606;BME280;5350;42.698;23.148;2023-11-22T00:27:21;92939.66;;;7.68;100.00
10606;BME280;5350;42.698;23.148;2023-11-22T00:29:47;92938.44;;;7.79;100.00
10606;BME280;5350;42.698;23.148;2023-11-22T00:32:14;92954.88;;;7.66;100.00
10606;BME280;5350;42.698;23.148;2023-11-22T00:34:41;92949.94;;;7.64;100.00
10606;BME280;5350;42.698;23.148;2023-11-22T00:37:08;92957.34;;;7.44;100.00
10606;BME280;5350;42.698;23.148;2023-11-22T00:39:34;92958.25;;;7.53;100.00
10606;BME280;5350;42.698;23.148;2023-11-22T00:42:01;92956.91;;;7.37;100.00
10606;BME280;5350;42.698;23.148;2023-11-22T00:44:30;92938.16;;;7.48;100.00
10606;BME280;5350;42.698;23.148;2023-11-22T00:46:57;92937.81;;;7.55;100.00
10606;BME280;5350;42.698;23.148;2023-11-22T00:49:24;92937.03;;;7.54;100.00
10606;BME280;5350;42.698;23.148;2023-11-22T00:51:50;92941.44;;;7.40;100.00
10606;BME280;5350;42.698;23.148;2023-11-22T00:54:17;92938.56;;;7.55;100.00
10606;BME280;5350;42.698;23.148;2023-11-22T00:56:45;92906.47;;;7.50;100.00
10606;BME280;5350;42.698;23.148;2023-11-22T00:59:12;92930.06;;;7.63;100.00
10606;BME280;5350;42.698;23.148;2023-11-22T01:01:40;92918.94;;;7.71;100.00
10606;BME280;5350;42.698;23.148;2023-11-22T01:04:07;92915.97;;;7.78;100.00
10606;BME280;5350;42.698;23.148;2023-11-22T01:06:34;92920.41;;;7.77;100.00
10606;BME280;5350;42.698;23.148;2023-11-22T01:09:02;92923.91;;;7.86;100.00
10606;BME280;5350;42.698;23.148;2023-11-22T01:11:29;92906.34;;;7.73;100.00
10606;BME280;5350;42.698;23.148;2023-11-22T01:13:55;92918.09;;;7.76;100.00
10606;BME280;5350;42.698;23.148;2023-11-22T01:16:22;92918.56;;;7.78;100.00
10606;BME280;5350;42.698;23.148;2023-11-22T01:18:50;92919.56;;;7.82;100.00
10606;BME280;5350;42.698;23.148;2023-11-22T01:21:18;92885.63;;;7.45;100.00
10606;BME280;5350;42.698;23.148;2023-11-22T01:23:44;92908.19;;;7.73;100.00
10606;BME280;5350;42.698;23.148;2023-11-22T01:26:11;92904.75;;;7.26;100.00
10606;BME280;5350;42.698;23.148;2023-11-22T01:28:38;92910.00;;;7.59;100.00
10606;BME280;5350;42.698;23.148;2023-11-22T01:31:11;92895.75;;;7.65;100.00
10606;BME280;5350;42.698;23.148;2023-11-22T01:33:37;92899.66;;;7.67;100.00
10606;BME280;5350;42.698;23.148;2023-11-22T01:36:06;92891.69;;;7.72;100.00
10606;BME280;5350;42.698;23.148;2023-11-22T01:38:33;92886.06;;;7.65;100.00
10606;BME280;5350;42.698;23.148;2023-11-22T01:41:00;92890.09;;;7.58;100.00
10606;BME280;5350;42.698;23.148;2023-11-22T01:43:27;92896.31;;;7.62;100.00
10606;BME280;5350;42.698;23.148;2023-11-22T01:45:54;92878.72;;;7.67;100.00
10606;BME280;5350;42.698;23.148;2023-11-22T01:48:21;92898.63;;;7.50;100.00
10606;BME280;5350;42.698;23.148;2023-11-22T01:50:48;92897.09;;;7.49;100.00
10606;BME280;5350;42.698;23.148;2023-11-22T01:53:16;92906.16;;;7.38;100.00
10606;BME280;5350;42.698;23.148;2023-11-22T01:55:44;92895.72;;;7.51;100.00
10606;BME280;5350;42.698;23.148;2023-11-22T01:58:11;92891.38;;;7.60;100.00
10606;BME280;5350;42.698;23.148;2023-11-22T02:00:45;92885.38;;;7.60;100.00
10606;BME280;5350;42.698;23.148;2023-11-22T02:03:12;92880.13;;;7.60;100.00
10606;BME280;5350;42.698;23.148;2023-11-22T02:05:40;92885.03;;;7.80;100.00
10606;BME280;5350;42.698;23.148;2023-11-22T02:08:09;92873.09;;;7.74;100.00
10606;BME280;5350;42.698;23.148;2023-11-22T02:10:37;92878.91;;;7.71;100.00
10606;BME280;5350;42.698;23.148;2023-11-22T02:13:04;92867.16;;;7.55;100.00
10606;BME280;5350;42.698;23.148;2023-11-22T02:15:33;92855.41;;;7.66;100.00
10606;BME280;5350;42.698;23.148;2023-11-22T02:18:00;92872.81;;;7.75;100.00
10606;BME280;5350;42.698;23.148;2023-11-22T02:20:27;92870.84;;;7.81;100.00
10606;BME280;5350;42.698;23.148;2023-11-22T02:22:54;92871.34;;;7.83;100.00
10606;BME280;5350;42.698;23.148;2023-11-22T02:25:22;92862.63;;;7.74;100.00
10606;BME280;5350;42.698;23.148;2023-11-22T02:27:49;92849.50;;;7.60;100.00
10606;BME280;5350;42.698;23.148;2023-11-22T02:30:17;92871.94;;;7.80;100.00
10606;BME280;5350;42.698;23.148;2023-11-22T02:32:44;92865.13;;;7.79;100.00
10606;BME280;5350;42.698;23.148;2023-11-22T02:35:10;92864.09;;;7.80;100.00
10606;BME280;5350;42.698;23.148;2023-11-22T02:37:38;92837.41;;;7.64;100.00
10606;BME280;5350;42.698;23.148;2023-11-22T02:40:08;92863.50;;;7.83;100.00
10606;BME280;5350;42.698;23.148;2023-11-22T02:42:40;92869.69;;;7.87;100.00
10606;BME280;5350;42.698;23.148;2023-11-22T02:45:07;92856.78;;;7.77;100.00
10606;BME280;5350;42.698;23.148;2023-11-22T02:47:34;92879.50;;;7.81;100.00
10606;BME280;5350;42.698;23.148;2023-11-22T02:50:03;92876.59;;;7.83;100.00
10606;BME280;5350;42.698;23.148;2023-11-22T02:52:30;92875.22;;;7.85;100.00
10606;BME280;5350;42.698;23.148;2023-11-22T02:54:57;92870.16;;;7.62;100.00
10606;BME280;5350;42.698;23.148;2023-11-22T02:57:24;92865.31;;;7.69;100.00
10606;BME280;5350;42.698;23.148;2023-11-22T02:59:52;92868.34;;;7.89;100.00
10606;BME280;5350;42.698;23.148;2023-11-22T03:02:19;92869.09;;;7.76;100.00
10606;BME280;5350;42.698;23.148;2023-11-22T03:04:46;92857.41;;;7.74;100.00
10606;BME280;5350;42.698;23.148;2023-11-22T03:07:13;92866.78;;;7.75;100.00
10606;BME280;5350;42.698;23.148;2023-11-22T03:09:40;92865.25;;;7.74;100.00
10606;BME280;5350;42.698;23.148;2023-11-22T03:12:09;92867.19;;;7.82;100.00
10606;BME280;5350;42.698;23.148;2023-11-22T03:14:38;92861.25;;;7.76;100.00
10606;BME280;5350;42.698;23.148;2023-11-22T03:17:06;92880.47;;;7.85;100.00
10606;BME280;5350;42.698;23.148;2023-11-22T03:19:33;92874.34;;;7.76;100.00
10606;BME280;5350;42.698;23.148;2023-11-22T03:22:00;92879.91;;;7.88;100.00
10606;BME280;5350;42.698;23.148;2023-11-22T03:24:28;92887.66;;;7.80;100.00
10606;BME280;5350;42.698;23.148;2023-11-22T03:26:55;92878.72;;;7.81;100.00
10606;BME280;5350;42.698;23.148;2023-11-22T03:29:24;92875.38;;;7.62;100.00
10606;BME280;5350;42.698;23.148;2023-11-22T03:31:50;92873.47;;;7.81;100.00
10606;BME280;5350;42.698;23.148;2023-11-22T03:34:18;92872.44;;;7.82;100.00
10606;BME280;5350;42.698;23.148;2023-11-22T03:36:45;92880.47;;;7.85;100.00
10606;BME280;5350;42.698;23.148;2023-11-22T03:39:12;92870.06;;;7.80;100.00
10606;BME280;5350;42.698;23.148;2023-11-22T03:41:40;92881.03;;;7.69;100.00
10606;BME280;5350;42.698;23.148;2023-11-22T03:44:07;92866.28;;;7.73;100.00
10606;BME280;5350;42.698;23.148;2023-11-22T03:46:34;92880.84;;;7.79;100.00
10606;BME280;5350;42.698;23.148;2023-11-22T03:49:01;92880.25;;;7.68;100.00
10606;BME280;5350;42.698;23.148;2023-11-22T03:51:29;92874.53;;;7.66;100.00
10606;BME280;5350;42.698;23.148;2023-11-22T03:53:56;92882.00;;;7.73;100.00
10606;BME280;5350;42.698;23.148;2023-11-22T03:56:23;92873.38;;;7.72;100.00
10606;BME280;5350;42.698;23.148;2023-11-22T03:58:49;92871.72;;;7.76;100.00
10606;BME280;5350;42.698;23.148;2023-11-22T04:01:16;92880.72;;;7.70;100.00
10606;BME280;5350;42.698;23.148;2023-11-22T04:03:44;92885.09;;;7.75;100.00
10606;BME280;5350;42.698;23.148;2023-11-22T04:06:11;92890.34;;;7.75;100.00
10606;BME280;5350;42.698;23.148;2023-11-22T04:08:39;92882.50;;;7.43;100.00
10606;BME280;5350;42.698;23.148;2023-11-22T04:11:05;92904.66;;;7.64;100.00
10606;BME280;5350;42.698;23.148;2023-11-22T04:13:32;92910.31;;;7.71;100.00
10606;BME280;5350;42.698;23.148;2023-11-22T04:15:59;92906.13;;;7.70;100.00
10606;BME280;5350;42.698;23.148;2023-11-22T04:18:25;92908.19;;;7.73;100.00
10606;BME280;5350;42.698;23.148;2023-11-22T04:20:52;92914.59;;;7.80;100.00
10606;BME280;5350;42.698;23.148;2023-11-22T04:23:20;92912.25;;;7.79;100.00
10606;BME280;5350;42.698;23.148;2023-11-22T04:25:49;92918.63;;;7.59;100.00
10606;BME280;5350;42.698;23.148;2023-11-22T04:28:15;92911.94;;;7.67;100.00
10606;BME280;5350;42.698;23.148;2023-11-22T04:30:43;92914.19;;;7.73;100.00
10606;BME280;5350;42.698;23.148;2023-11-22T04:33:10;92917.50;;;7.79;100.00
10606;BME280;5350;42.698;23.148;2023-11-22T04:35:37;92917.50;;;7.79;100.00
10606;BME280;5350;42.698;23.148;2023-11-22T04:38:04;92921.28;;;7.73;100.00
10606;BME280;5350;42.698;23.148;2023-11-22T04:40:30;92921.94;;;7.78;100.00
10606;BME280;5350;42.698;23.148;2023-11-22T04:42:59;92931.97;;;7.90;100.00
10606;BME280;5350;42.698;23.148;2023-11-22T04:45:26;92927.03;;;7.88;100.00
10606;BME280;5350;42.698;23.148;2023-11-22T04:47:52;92852.94;;;6.96;100.00
10606;BME280;5350;42.698;23.148;2023-11-22T04:50:22;92940.56;;;7.63;100.00
10606;BME280;5350;42.698;23.148;2023-11-22T04:52:49;92953.03;;;7.66;100.00
10606;BME280;5350;42.698;23.148;2023-11-22T04:55:16;92945.97;;;7.67;100.00
10606;BME280;5350;42.698;23.148;2023-11-22T04:57:43;92945.00;;;7.63;100.00
10606;BME280;5350;42.698;23.148;2023-11-22T05:00:12;92958.41;;;7.75;100.00
10606;BME280;5350;42.698;23.148;2023-11-22T05:02:39;92959.88;;;7.81;100.00
10606;BME280;5350;42.698;23.148;2023-11-22T05:05:06;92970.84;;;7.83;100.00
10606;BME280;5350;42.698;23.148;2023-11-22T05:07:35;92983.50;;;7.94;100.00
10606;BME280;5350;42.698;23.148;2023-11-22T05:10:02;92981.00;;;8.03;100.00
10606;BME280;5350;42.698;23.148;2023-11-22T05:12:29;92978.50;;;7.93;100.00
10606;BME280;5350;42.698;23.148;2023-11-22T05:14:56;92985.38;;;7.89;100.00
10606;BME280;5350;42.698;23.148;2023-11-22T05:17:24;92995.50;;;7.95;100.00
10606;BME280;5350;42.698;23.148;2023-11-22T05:19:51;93002.50;;;8.00;100.00
10606;BME280;5350;42.698;23.148;2023-11-22T05:22:17;93000.94;;;7.99;100.00
10606;BME280;5350;42.698;23.148;2023-11-22T05:24:44;93000.56;;;8.05;100.00
10606;BME280;5350;42.698;23.148;2023-11-22T05:27:11;93016.31;;;8.19;100.00
10606;BME280;5350;42.698;23.148;2023-11-22T05:29:38;93003.88;;;8.11;100.00
10606;BME280;5350;42.698;23.148;2023-11-22T05:32:06;93010.34;;;8.00;100.00
10606;BME280;5350;42.698;23.148;2023-11-22T05:34:34;93024.06;;;8.11;100.00
10606;BME280;5350;42.698;23.148;2023-11-22T05:37:00;93028.94;;;8.17;100.00
10606;BME280;5350;42.698;23.148;2023-11-22T05:39:27;93025.81;;;8.15;100.00
10606;BME280;5350;42.698;23.148;2023-11-22T05:41:54;93029.31;;;8.24;100.00
10606;BME280;5350;42.698;23.148;2023-11-22T05:44:22;93039.69;;;8.34;100.00
10606;BME280;5350;42.698;23.148;2023-11-22T05:46:50;93034.81;;;8.41;100.00
10606;BME280;5350;42.698;23.148;2023-11-22T05:49:17;93045.72;;;8.48;100.00
10606;BME280;5350;42.698;23.148;2023-11-22T05:51:45;93039.00;;;8.42;100.00
10606;BME280;5350;42.698;23.148;2023-11-22T05:54:12;93033.34;;;8.35;100.00
10606;BME280;5350;42.698;23.148;2023-11-22T05:56:41;93046.28;;;8.45;100.00
10606;BME280;5350;42.698;23.148;2023-11-22T05:59:08;93046.69;;;8.52;100.00
10606;BME280;5350;42.698;23.148;2023-11-22T06:01:35;93043.00;;;8.67;100.00
10606;BME280;5350;42.698;23.148;2023-11-22T06:04:01;93036.78;;;8.63;100.00
10606;BME280;5350;42.698;23.148;2023-11-22T06:06:28;93046.13;;;8.69;100.00
10606;BME280;5350;42.698;23.148;2023-11-22T06:08:56;93051.56;;;8.72;100.00
10606;BME280;5350;42.698;23.148;2023-11-22T06:11:23;93057.00;;;8.76;100.00
10606;BME280;5350;42.698;23.148;2023-11-22T06:13:50;93060.09;;;8.64;100.00
10606;BME280;5350;42.698;23.148;2023-11-22T06:16:17;93061.19;;;8.63;100.00
10606;BME280;5350;42.698;23.148;2023-11-22T06:18:44;93067.59;;;8.71;100.00
10606;BME280;5350;42.698;23.148;2023-11-22T06:21:12;93074.44;;;8.53;100.00
10606;BME280;5350;42.698;23.148;2023-11-22T06:23:39;93068.34;;;8.58;100.00
10606;BME280;5350;42.698;23.148;2023-11-22T06:26:07;93081.25;;;8.54;100.00
10606;BME280;5350;42.698;23.148;2023-11-22T06:28:33;93036.97;;;8.21;100.00
10606;BME280;5350;42.698;23.148;2023-11-22T06:31:00;93095.13;;;8.55;100.00
10606;BME280;5350;42.698;23.148;2023-11-22T06:33:28;93107.88;;;8.75;100.00
10606;BME280;5350;42.698;23.148;2023-11-22T06:35:54;93102.63;;;8.75;100.00
10606;BME280;5350;42.698;23.148;2023-11-22T06:38:21;93098.56;;;8.69;100.00
10606;BME280;5350;42.698;23.148;2023-11-22T06:40:48;93093.13;;;8.79;100.00
10606;BME280;5350;42.698;23.148;2023-11-22T06:43:16;93082.25;;;8.85;100.00
10606;BME280;5350;42.698;23.148;2023-11-22T06:45:43;93092.06;;;8.94;100.00
10606;BME280;5350;42.698;23.148;2023-11-22T06:48:10;93101.03;;;8.93;100.00
10606;BME280;5350;42.698;23.148;2023-11-22T06:50:37;93105.78;;;8.91;100.00
10606;BME280;5350;42.698;23.148;2023-11-22T06:53:03;93108.47;;;8.99;100.00
10606;BME280;5350;42.698;23.148;2023-11-22T06:55:31;93113.81;;;9.08;100.00
10606;BME280;5350;42.698;23.148;2023-11-22T06:58:00;93116.28;;;9.18;100.00
10606;BME280;5350;42.698;23.148;2023-11-22T07:00:28;93118.22;;;9.26;100.00
10606;BME280;5350;42.698;23.148;2023-11-22T07:02:54;93104.97;;;9.31;100.00
10606;BME280;5350;42.698;23.148;2023-11-22T07:05:21;93130.63;;;9.47;100.00
10606;BME280;5350;42.698;23.148;2023-11-22T07:07:49;93111.59;;;9.42;100.00
10606;BME280;5350;42.698;23.148;2023-11-22T07:10:16;93110.03;;;9.41;100.00
10606;BME280;5350;42.698;23.148;2023-11-22T07:12:46;93114.78;;;9.52;100.00
10606;BME280;5350;42.698;23.148;2023-11-22T07:15:13;93129.66;;;9.57;100.00
10606;BME280;5350;42.698;23.148;2023-11-22T07:17:41;93135.50;;;9.54;100.00
10606;BME280;5350;42.698;23.148;2023-11-22T07:20:08;93132.88;;;9.54;100.00
10606;BME280;5350;42.698;23.148;2023-11-22T07:22:41;93132.94;;;9.62;100.00
10606;BME280;5350;42.698;23.148;2023-11-22T07:25:09;93136.84;;;9.65;100.00
10606;BME280;5350;42.698;23.148;2023-11-22T07:27:44;93144.59;;;9.70;100.00
10606;BME280;5350;42.698;23.148;2023-11-22T07:30:11;93140.44;;;9.69;100.00
10606;BME280;5350;42.698;23.148;2023-11-22T07:32:40;93141.41;;;9.73;100.00
10606;BME280;5350;42.698;23.148;2023-11-22T07:35:08;93153.34;;;9.79;100.00
10606;BME280;5350;42.698;23.148;2023-11-22T07:37:35;93143.44;;;9.76;100.00
10606;BME280;5350;42.698;23.148;2023-11-22T07:40:06;93138.38;;;9.80;100.00
10606;BME280;5350;42.698;23.148;2023-11-22T07:42:33;93139.53;;;9.87;100.00
10606;BME280;5350;42.698;23.148;2023-11-22T07:45:00;93138.34;;;9.93;100.00
10606;BME280;5350;42.698;23.148;2023-11-22T07:47:27;93140.84;;;9.98;100.00
10606;BME280;5350;42.698;23.148;2023-11-22T07:49:55;93142.31;;;10.04;100.00
10606;BME280;5350;42.698;23.148;2023-11-22T07:52:22;93092.47;;;9.77;100.00
10606;BME280;5350;42.698;23.148;2023-11-22T07:54:55;93153.28;;;10.06;100.00
10606;BME280;5350;42.698;23.148;2023-11-22T07:57:22;93150.09;;;9.96;100.00
10606;BME280;5350;42.698;23.148;2023-11-22T07:59:48;93150.41;;;9.94;100.00
10606;BME280;5350;42.698;23.148;2023-11-22T08:02:16;93147.00;;;9.94;100.00
10606;BME280;5350;42.698;23.148;2023-11-22T08:04:44;93153.50;;;9.96;100.00
10606;BME280;5350;42.698;23.148;2023-11-22T08:07:13;93147.66;;;9.99;100.00
10606;BME280;5350;42.698;23.148;2023-11-22T08:09:40;93142.59;;;10.03;100.00
10606;BME280;5350;42.698;23.148;2023-11-22T08:12:07;93141.25;;;10.05;100.00
10606;BME280;5350;42.698;23.148;2023-11-22T08:14:33;93142.78;;;10.06;100.00
10606;BME280;5350;42.698;23.148;2023-11-22T08:17:01;93160.31;;;10.11;100.00
10606;BME280;5350;42.698;23.148;2023-11-22T08:19:29;93154.94;;;10.16;100.00
10606;BME280;5350;42.698;23.148;2023-11-22T08:21:55;93158.25;;;10.21;100.00
10606;BME280;5350;42.698;23.148;2023-11-22T08:24:25;93032.38;;;9.40;100.00
10606;BME280;5350;42.698;23.148;2023-11-22T08:26:52;93160.88;;;10.21;100.00
10606;BME280;5350;42.698;23.148;2023-11-22T08:29:18;93161.13;;;10.33;100.00
10606;BME280;5350;42.698;23.148;2023-11-22T08:31:45;93163.66;;;10.38;100.00
10606;BME280;5350;42.698;23.148;2023-11-22T08:34:13;93157.47;;;10.43;100.00
10606;BME280;5350;42.698;23.148;2023-11-22T08:36:40;93158.38;;;10.38;100.00
10606;BME280;5350;42.698;23.148;2023-11-22T08:39:07;93173.06;;;10.39;100.00
10606;BME280;5350;42.698;23.148;2023-11-22T08:41:35;93176.19;;;10.41;100.00
10606;BME280;5350;42.698;23.148;2023-11-22T08:44:03;93174.22;;;10.47;100.00
10606;BME280;5350;42.698;23.148;2023-11-22T08:46:31;93166.28;;;10.38;100.00
10606;BME280;5350;42.698;23.148;2023-11-22T08:48:58;93182.75;;;10.53;100.00
10606;BME280;5350;42.698;23.148;2023-11-22T08:51:25;93183.34;;;10.50;100.00
10606;BME280;5350;42.698;23.148;2023-11-22T08:53:52;93188.97;;;10.57;100.00
10606;BME280;5350;42.698;23.148;2023-11-22T08:56:20;93192.91;;;10.45;100.00
10606;BME280;5350;42.698;23.148;2023-11-22T08:58:48;93201.63;;;10.32;100.00
10606;BME280;5350;42.698;23.148;2023-11-22T09:01:15;93209.88;;;10.39;100.00
10606;BME280;5350;42.698;23.148;2023-11-22T09:03:43;93201.16;;;10.30;100.00
10606;BME280;5350;42.698;23.148;2023-11-22T09:06:10;93199.59;;;10.29;100.00
10606;BME280;5350;42.698;23.148;2023-11-22T09:08:36;93203.66;;;10.35;100.00
10606;BME280;5350;42.698;23.148;2023-11-22T09:11:03;93204.31;;;10.41;100.00
10606;BME280;5350;42.698;23.148;2023-11-22T09:13:31;93200.94;;;10.40;100.00
10606;BME280;5350;42.698;23.148;2023-11-22T09:16:00;93203.03;;;10.52;100.00
10606;BME280;5350;42.698;23.148;2023-11-22T09:18:26;93207.28;;;10.62;100.00
10606;BME280;5350;42.698;23.148;2023-11-22T09:20:53;93213.97;;;10.68;100.00
10606;BME280;5350;42.698;23.148;2023-11-22T09:23:20;93214.31;;;10.75;100.00
10606;BME280;5350;42.698;23.148;2023-11-22T09:25:47;93215.75;;;10.81;100.00
10606;BME280;5350;42.698;23.148;2023-11-22T09:28:14;93218.84;;;10.83;100.00
10606;BME280;5350;42.698;23.148;2023-11-22T09:30:41;93216.75;;;10.93;100.00
10606;BME280;5350;42.698;23.148;2023-11-22T09:33:11;93216.97;;;10.97;100.00
10606;BME280;5350;42.698;23.148;2023-11-22T09:35:40;93200.91;;;10.85;100.00
10606;BME280;5350;42.698;23.148;2023-11-22T09:38:08;93225.44;;;10.94;100.00
10606;BME280;5350;42.698;23.148;2023-11-22T09:40:40;93214.50;;;11.00;100.00
10606;BME280;5350;42.698;23.148;2023-11-22T09:43:07;93224.44;;;11.03;100.00
10606;BME280;5350;42.698;23.148;2023-11-22T09:45:34;93226.94;;;11.08;100.00
10606;BME280;5350;42.698;23.148;2023-11-22T09:48:10;93204.59;;;11.06;100.00
10606;BME280;5350;42.698;23.148;2023-11-22T09:50:49;93211.97;;;11.17;100.00
10606;BME280;5350;42.698;23.148;2023-11-22T09:53:22;93190.50;;;11.02;100.00
10606;BME280;5350;42.698;23.148;2023-11-22T09:55:49;93204.66;;;11.14;100.00
10606;BME280;5350;42.698;23.148;2023-11-22T09:58:16;93208.34;;;11.05;100.00
10606;BME280;5350;42.698;23.148;2023-11-22T10:00:45;93207.84;;;11.03;100.00
10606;BME280;5350;42.698;23.148;2023-11-22T10:03:13;93206.22;;;11.15;100.00
10606;BME280;5350;42.698;23.148;2023-11-22T10:05:41;93202.94;;;11.10;100.00
10606;BME280;5350;42.698;23.148;2023-11-22T10:08:08;93201.88;;;11.11;100.00
10606;BME280;5350;42.698;23.148;2023-11-22T10:10:36;93206.81;;;11.12;100.00
10606;BME280;5350;42.698;23.148;2023-11-22T10:13:05;93206.97;;;11.07;100.00
10606;BME280;5350;42.698;23.148;2023-11-22T10:15:32;93206.09;;;11.20;100.00
10606;BME280;5350;42.698;23.148;2023-11-22T10:17:59;93187.75;;;11.07;100.00
10606;BME280;5350;42.698;23.148;2023-11-22T10:20:37;93204.84;;;11.18;100.00
10606;BME280;5350;42.698;23.148;2023-11-22T10:23:09;93209.66;;;11.24;100.00
10606;BME280;5350;42.698;23.148;2023-11-22T10:25:37;93203.97;;;11.31;100.00
10606;BME280;5350;42.698;23.148;2023-11-22T10:28:06;93209.59;;;11.38;100.00
10606;BME280;5350;42.698;23.148;2023-11-22T10:30:32;93208.97;;;11.41;100.00
10606;BME280;5350;42.698;23.148;2023-11-22T10:32:59;93194.56;;;11.39;100.00
10606;BME280;5350;42.698;23.148;2023-11-22T10:35:26;93200.78;;;11.43;100.00
10606;BME280;5350;42.698;23.148;2023-11-22T10:37:53;93187.59;;;11.34;100.00
10606;BME280;5350;42.698;23.148;2023-11-22T10:40:21;93206.38;;;11.50;100.00
10606;BME280;5350;42.698;23.148;2023-11-22T10:42:50;93204.22;;;11.52;100.00
10606;BME280;5350;42.698;23.148;2023-11-22T10:45:19;93199.25;;;11.50;100.00
10606;BME280;5350;42.698;23.148;2023-11-22T10:47:49;93204.47;;;11.42;100.00
10606;BME280;5350;42.698;23.148;2023-11-22T10:50:16;93206.53;;;11.45;100.00
10606;BME280;5350;42.698;23.148;2023-11-22T10:52:44;93211.84;;;11.53;100.00
10606;BME280;5350;42.698;23.148;2023-11-22T10:55:15;93217.56;;;11.55;100.00
10606;BME280;5350;42.698;23.148;2023-11-22T10:57:45;93213.84;;;11.56;100.00
10606;BME280;5350;42.698;23.148;2023-11-22T11:00:15;93213.53;;;11.49;100.00
10606;BME280;5350;42.698;23.148;2023-11-22T11:02:45;93218.75;;;11.41;100.00
10606;BME280;5350;42.698;23.148;2023-11-22T11:05:16;93218.31;;;11.47;100.00
10606;BME280;5350;42.698;23.148;2023-11-22T11:07:49;93211.00;;;11.44;100.00
10606;BME280;5350;42.698;23.148;2023-11-22T11:10:19;93207.06;;;11.33;100.00
10606;BME280;5350;42.698;23.148;2023-11-22T11:12:48;93215.38;;;11.49;100.00
10606;BME280;5350;42.698;23.148;2023-11-22T11:15:16;93214.22;;;11.41;100.00
10606;BME280;5350;42.698;23.148;2023-11-22T11:17:44;93214.53;;;11.40;100.00
10606;BME280;5350;42.698;23.148;2023-11-22T11:20:15;93217.28;;;11.26;100.00
10606;BME280;5350;42.698;23.148;2023-11-22T11:22:43;93217.81;;;11.37;100.00
10606;BME280;5350;42.698;23.148;2023-11-22T11:25:13;93210.81;;;11.32;100.00
10606;BME280;5350;42.698;23.148;2023-11-22T11:27:41;93205.59;;;11.18;100.00
10606;BME280;5350;42.698;23.148;2023-11-22T11:33:17;93210.72;;;11.15;100.00
10606;BME280;5350;42.698;23.148;2023-11-22T11:35:46;93209.66;;;11.24;100.00
10606;BME280;5350;42.698;23.148;2023-11-22T11:38:14;93210.03;;;11.32;100.00
10606;BME280;5350;42.698;23.148;2023-11-22T11:40:43;93217.59;;;11.33;100.00
10606;BME280;5350;42.698;23.148;2023-11-22T11:43:11;93221.19;;;11.37;100.00
10606;BME280;5350;42.698;23.148;2023-11-22T11:45:39;93219.22;;;11.43;100.00
10606;BME280;5350;42.698;23.148;2023-11-22T11:48:12;93223.09;;;11.45;100.00
10606;BME280;5350;42.698;23.148;2023-11-22T11:50:40;93203.53;;;11.38;100.00
10606;BME280;5350;42.698;23.148;2023-11-22T11:53:07;93213.63;;;11.44;100.00
10606;BME280;5350;42.698;23.148;2023-11-22T11:55:35;93223.38;;;11.44;100.00
10606;BME280;5350;42.698;23.148;2023-11-22T11:58:05;93229.13;;;11.46;100.00
10606;BME280;5350;42.698;23.148;2023-11-22T12:00:35;93234.13;;;11.47;100.00
10606;BME280;5350;42.698;23.148;2023-11-22T12:03:06;93233.03;;;11.48;100.00
10606;BME280;5350;42.698;23.148;2023-11-22T12:05:32;93230.81;;;11.42;100.00
10606;BME280;5350;42.698;23.148;2023-11-22T12:08:00;93235.31;;;11.41;100.00
10606;BME280;5350;42.698;23.148;2023-11-22T12:10:28;93233.88;;;11.35;100.00
10606;BME280;5350;42.698;23.148;2023-11-22T12:12:55;93255.72;;;11.36;100.00
10606;BME280;5350;42.698;23.148;2023-11-22T12:15:22;93235.41;;;11.27;100.00
10606;BME280;5350;42.698;23.148;2023-11-22T12:17:49;93203.72;;;11.10;100.00
10606;BME280;5350;42.698;23.148;2023-11-22T12:20:16;93232.94;;;11.31;100.00
10606;BME280;5350;42.698;23.148;2023-11-22T12:22:46;93245.31;;;11.31;100.00
10606;BME280;5350;42.698;23.148;2023-11-22T12:25:15;93238.09;;;11.36;100.00
10606;BME280;5350;42.698;23.148;2023-11-22T12:27:42;93244.72;;;11.34;100.00
10606;BME280;5350;42.698;23.148;2023-11-22T12:30:22;93250.50;;;11.44;100.00
10606;BME280;5350;42.698;23.148;2023-11-22T12:32:53;93238.88;;;11.14;100.00
10606;BME280;5350;42.698;23.148;2023-11-22T12:35:21;93238.88;;;11.14;100.00
10606;BME280;5350;42.698;23.148;2023-11-22T12:37:48;93246.66;;;11.19;100.00
10606;BME280;5350;42.698;23.148;2023-11-22T12:40:20;93227.09;;;11.12;100.00
10606;BME280;5350;42.698;23.148;2023-11-22T12:42:47;93251.63;;;11.21;100.00
10606;BME280;5350;42.698;23.148;2023-11-22T12:45:19;93239.72;;;11.01;100.00
10606;BME280;5350;42.698;23.148;2023-11-22T12:47:46;93271.31;;;11.23;100.00
10606;BME280;5350;42.698;23.148;2023-11-22T12:50:29;93271.94;;;11.29;100.00
10606;BME280;5350;42.698;23.148;2023-11-22T12:52:56;93277.69;;;11.31;100.00
10606;BME280;5350;42.698;23.148;2023-11-22T12:55:24;93272.16;;;11.41;100.00
10606;BME280;5350;42.698;23.148;2023-11-22T12:57:57;93275.28;;;11.43;100.00
10606;BME280;5350;42.698;23.148;2023-11-22T13:00:27;93284.28;;;11.42;100.00
10606;BME280;5350;42.698;23.148;2023-11-22T13:02:55;93280.13;;;11.50;100.00